Aérodrome :
LOGIN :

S'inscrire | Disclaimer

   EN    FR    IT 

 










Légende :    VFR   VFR Marginal   IFR   IFR Intensif   IFR Très Intensif
Visi : 
Plafond : 
>= 8 km
>= 3000ft
5 à 8 km
1000 à 3000 ft
1500m à 5 km
500 à 1000 ft
800 à 1500m
200 à 500 ft
< 800m
< 200 ft
Symboles :   Orages  Brouillard  Fortes neiges  Fortes précipitations  Vent > 20 kt
SIGMETs :   Divers  Orages  Givrage  Turbulence  Onde Orograph.  Cendres Volcan.






- Altitude de l'aérodrome : 648 ft
- Code IATA : INI


LYNI - Nis Constantine

DERNIER METAR :
  • 071500Z 32011KT 290V360 9999 BKN030 17/12 Q1016 NOSIG

METARs EXPIRÉS :
  • 071430Z VRB13KT 9999 BKN030 17/12 Q1016 NOSIG
  • 071400Z 33012KT 300V360 9999 SCT027 BKN040 18/12 Q1016 NOSIG
  • 071330Z 33013KT 9999 -RA BKN027 BKN040 18/12 Q1016 NOSIG
  • 071300Z 31010KT 9999 SCT023 BKN035 18/13 Q1015 NOSIG
  • 071230Z 31011KT 270V340 9999 BKN023 BKN030 17/13 Q1015 NOSIG

TAF TAF LYNI
Valide du 07 à 12h jusqu'au 08 à 12h UTC


071100Z 0712/0812 31016G28KT 9999 BKN027 TX25/0812Z TN10/0804Z
BECMG 0715/0717 31008KT



MET'MAP, la Météo Aéronautique d'un coup d'oeil ! - Copyright ORBIFLY Décembre 2007 - Disclaimer

ORBIFLY MET'MAP TEAM :

Programmation & Développement : Alexandra Zaïnal
Sur une idée originale de : Baudouin d'Aumeries
Assistance à la programmation : Marc-Olivier Méhu
Soutien technique & logistique : Manuel Goepfert

Contact : metmap@orbifly.com




SOURCES & CREDITS :

   NOAA